createdAt,value
2019-05-11T00:01:57.403Z,10.70
2019-05-11T00:04:28.494Z,10.60
2019-05-11T00:06:59.635Z,10.50
2019-05-11T00:09:30.789Z,10.50
2019-05-11T00:12:02.955Z,10.80
2019-05-11T00:14:34.088Z,10.80
2019-05-11T00:17:05.144Z,10.70
2019-05-11T00:19:36.226Z,10.60
2019-05-11T00:22:07.313Z,10.40
2019-05-11T00:24:38.460Z,10.40
2019-05-11T00:27:09.595Z,10.30
2019-05-11T00:29:40.750Z,10.20
2019-05-11T00:32:11.879Z,10.20
2019-05-11T00:34:42.925Z,10.20
2019-05-11T00:37:14.473Z,10.30
2019-05-11T00:39:45.615Z,10.20
2019-05-11T00:42:16.716Z,10.20
2019-05-11T00:44:48.770Z,10.20
2019-05-11T00:47:19.862Z,10.20
2019-05-11T00:49:51.006Z,10.30
2019-05-11T00:52:22.150Z,10.40
2019-05-11T00:54:53.191Z,10.40
2019-05-11T00:57:24.332Z,10.50
2019-05-11T00:59:55.475Z,10.50
2019-05-11T01:02:26.630Z,10.50
2019-05-11T01:04:57.777Z,10.30
2019-05-11T01:07:28.904Z,10.10
2019-05-11T01:09:59.940Z,10.00
2019-05-11T01:12:31.081Z,10.10
2019-05-11T01:15:02.226Z,10.00
2019-05-11T01:17:33.365Z,10.10
2019-05-11T01:20:09.423Z,10.10
2019-05-11T01:22:40.573Z,10.10
2019-05-11T01:25:11.916Z,10.10
2019-05-11T01:27:44.094Z,10.10
2019-05-11T01:30:15.773Z,10.00
2019-05-11T01:32:46.876Z,9.90
2019-05-11T01:35:18.019Z,9.80
2019-05-11T01:37:49.057Z,9.80
2019-05-11T01:40:20.903Z,9.70
2019-05-11T01:42:52.079Z,9.70
2019-05-11T01:45:23.200Z,9.80
2019-05-11T01:47:54.244Z,9.90
2019-05-11T01:50:25.399Z,9.90
2019-05-11T01:52:56.526Z,9.90
2019-05-11T01:55:27.460Z,10.00
2019-05-11T01:57:58.425Z,9.90
2019-05-11T02:00:29.362Z,9.80
2019-05-11T02:03:00.331Z,9.80
2019-05-11T02:05:31.747Z,9.80
2019-05-11T02:08:03.466Z,9.70
2019-05-11T02:10:34.466Z,9.80
2019-05-11T02:13:05.536Z,9.80
2019-05-11T02:15:36.474Z,9.90
2019-05-11T02:18:07.451Z,10.10
2019-05-11T02:20:38.394Z,10.10
2019-05-11T02:23:09.395Z,10.20
2019-05-11T02:25:40.435Z,10.10
2019-05-11T02:28:11.429Z,10.00
2019-05-11T02:30:42.428Z,10.00
2019-05-11T02:33:13.471Z,10.10
2019-05-11T02:35:44.415Z,10.00
2019-05-11T02:38:15.374Z,9.90
2019-05-11T02:40:46.311Z,9.90
2019-05-11T02:43:17.280Z,10.10
2019-05-11T02:45:48.321Z,10.00
2019-05-11T02:48:19.292Z,9.90
2019-05-11T02:50:51.246Z,9.90
2019-05-11T02:53:22.877Z,9.90
2019-05-11T02:55:55.580Z,9.70
2019-05-11T02:58:26.564Z,9.60
2019-05-11T03:00:57.514Z,9.50
2019-05-11T03:03:28.490Z,9.50
2019-05-11T03:05:59.425Z,9.50
2019-05-11T03:08:30.384Z,9.40
2019-05-11T03:11:01.329Z,9.50
2019-05-11T03:13:32.293Z,9.70
2019-05-11T03:16:03.226Z,9.70
2019-05-11T03:18:34.168Z,9.70
2019-05-11T03:21:05.141Z,9.60
2019-05-11T03:23:36.080Z,9.60
2019-05-11T03:26:07.044Z,9.60
2019-05-11T03:28:38.179Z,9.80
2019-05-11T03:31:09.237Z,10.00
2019-05-11T03:33:40.311Z,10.00
2019-05-11T03:36:11.315Z,10.00
2019-05-11T03:38:42.248Z,10.00
2019-05-11T03:41:13.301Z,10.10
2019-05-11T03:43:44.243Z,10.10
2019-05-11T03:46:15.219Z,10.20
2019-05-11T03:48:46.159Z,10.10
2019-05-11T03:51:17.129Z,10.10
2019-05-11T03:53:49.199Z,10.10
2019-05-11T03:56:20.160Z,10.20
2019-05-11T03:58:51.110Z,10.00
2019-05-11T04:01:22.078Z,9.90
2019-05-11T04:03:53.007Z,9.80
2019-05-11T04:06:24.009Z,10.00
2019-05-11T04:08:54.997Z,10.00
2019-05-11T04:11:25.965Z,10.00
2019-05-11T04:13:56.933Z,10.10
2019-05-11T04:16:27.871Z,10.10
2019-05-11T04:18:58.853Z,10.30
2019-05-11T04:21:29.860Z,10.40
2019-05-11T04:24:00.964Z,10.40
2019-05-11T04:26:31.906Z,10.40
2019-05-11T04:29:02.943Z,10.40
2019-05-11T04:31:34.877Z,10.40
2019-05-11T04:34:05.957Z,10.40
2019-05-11T04:36:36.963Z,10.60
2019-05-11T04:39:08.533Z,10.60
2019-05-11T04:41:39.495Z,10.50
2019-05-11T04:44:10.473Z,10.60
2019-05-11T04:46:41.411Z,10.80
2019-05-11T04:49:12.390Z,10.80
2019-05-11T04:51:43.329Z,10.60
2019-05-11T04:54:14.355Z,10.50
2019-05-11T04:56:45.414Z,10.40
2019-05-11T04:59:16.439Z,10.30
2019-05-11T05:01:47.385Z,10.10
2019-05-11T05:04:18.350Z,10.20
2019-05-11T05:06:59.491Z,10.10
2019-05-11T05:09:22.910Z,10.20
2019-05-11T05:11:53.991Z,10.30
2019-05-11T05:14:24.970Z,10.50
2019-05-11T05:16:55.924Z,10.70
2019-05-11T05:19:26.959Z,11.00
2019-05-11T05:21:57.910Z,11.10
2019-05-11T05:24:28.895Z,11.20
2019-05-11T05:26:59.843Z,11.20
2019-05-11T05:29:30.864Z,11.10
2019-05-11T05:32:01.810Z,10.90
2019-05-11T05:34:32.785Z,10.90
2019-05-11T05:37:03.734Z,11.00
2019-05-11T05:39:34.722Z,10.80
2019-05-11T05:42:05.671Z,10.70
2019-05-11T05:44:36.649Z,10.70
2019-05-11T05:47:07.600Z,10.80
2019-05-11T05:49:38.576Z,11.00
2019-05-11T05:52:10.546Z,11.10
2019-05-11T05:54:41.600Z,11.20
2019-05-11T05:57:12.555Z,11.00
2019-05-11T05:59:43.539Z,11.00
2019-05-11T06:02:14.518Z,11.00
2019-05-11T06:04:45.462Z,10.90
2019-05-11T06:07:16.462Z,10.90
2019-05-11T06:09:47.399Z,10.90
2019-05-11T06:12:18.387Z,10.90
2019-05-11T06:14:50.399Z,10.90
2019-05-11T06:17:21.382Z,11.10
2019-05-11T06:19:52.334Z,11.10
2019-05-11T06:22:23.318Z,10.90
2019-05-11T06:24:54.382Z,11.00
2019-05-11T06:27:25.360Z,11.00
2019-05-11T06:29:56.304Z,11.20
2019-05-11T06:32:27.285Z,11.40
2019-05-11T06:34:58.234Z,11.50
2019-05-11T06:37:29.210Z,11.70
2019-05-11T06:40:00.809Z,12.00
2019-05-11T06:42:31.939Z,11.90
2019-05-11T06:45:02.888Z,11.90
2019-05-11T06:47:33.865Z,12.00
2019-05-11T06:50:06.625Z,12.00
2019-05-11T06:52:37.592Z,12.00
2019-05-11T06:55:08.748Z,12.10
2019-05-11T06:57:39.744Z,11.90
2019-05-11T07:00:11.300Z,11.90
2019-05-11T07:02:42.295Z,11.80
2019-05-11T07:05:13.247Z,11.70
2019-05-11T07:07:47.697Z,11.70
2019-05-11T07:10:17.106Z,11.70
2019-05-11T07:12:48.086Z,11.80
2019-05-11T07:15:19.485Z,12.00
2019-05-11T07:17:50.441Z,12.00
2019-05-11T07:20:21.422Z,12.10
2019-05-11T07:22:52.363Z,12.10
2019-05-11T07:25:23.370Z,11.90
2019-05-11T07:27:54.312Z,11.90
2019-05-11T07:30:25.291Z,12.00
2019-05-11T07:32:58.116Z,12.30
2019-05-11T07:35:28.916Z,12.40
2019-05-11T07:37:59.951Z,12.50
2019-05-11T07:40:30.935Z,12.60
2019-05-11T07:43:01.891Z,12.80
2019-05-11T07:45:32.866Z,13.00
2019-05-11T07:48:03.806Z,13.50
2019-05-11T07:50:34.788Z,13.70
2019-05-11T07:53:08.027Z,13.70
2019-05-11T07:55:38.693Z,13.70
2019-05-11T07:58:09.675Z,13.80
2019-05-11T08:00:40.647Z,13.90
2019-05-11T08:03:11.595Z,14.00
2019-05-11T08:05:42.567Z,14.40
2019-05-11T08:08:13.512Z,14.60
2019-05-11T08:10:48.286Z,14.80
2019-05-11T08:13:19.407Z,14.90
2019-05-11T08:15:50.399Z,15.00
2019-05-11T08:18:21.394Z,15.00
2019-05-11T08:20:52.365Z,14.80
2019-05-11T08:23:23.304Z,14.80
2019-05-11T08:25:54.597Z,14.80
2019-05-11T08:28:25.701Z,14.70
2019-05-11T08:30:57.885Z,14.70
2019-05-11T08:33:29.132Z,14.80
2019-05-11T08:36:00.192Z,14.80
2019-05-11T08:38:31.163Z,14.90
2019-05-11T08:41:02.106Z,15.30
2019-05-11T08:43:33.087Z,15.50
2019-05-11T08:46:04.037Z,15.40
2019-05-11T08:48:35.009Z,15.00
2019-05-11T08:51:08.239Z,14.90
2019-05-11T08:53:38.883Z,14.70
2019-05-11T08:56:13.150Z,14.70
2019-05-11T08:58:42.556Z,14.80
2019-05-11T09:01:13.495Z,15.00
2019-05-11T09:03:44.505Z,15.30
2019-05-11T09:06:17.817Z,15.30
2019-05-11T09:08:49.348Z,15.60
2019-05-11T09:11:21.504Z,16.10
2019-05-11T09:13:52.492Z,16.40
2019-05-11T09:16:23.429Z,16.30
2019-05-11T09:18:55.433Z,16.50
2019-05-11T09:21:28.138Z,16.20
2019-05-11T09:23:59.049Z,16.00
2019-05-11T09:26:29.996Z,16.00
2019-05-11T09:29:00.972Z,16.10
2019-05-11T09:31:31.914Z,16.20
2019-05-11T09:34:02.887Z,16.40
2019-05-11T09:36:33.862Z,16.60
2019-05-11T09:39:08.438Z,16.80
2019-05-11T09:41:39.528Z,16.80
2019-05-11T09:44:10.910Z,17.10
2019-05-11T09:46:41.850Z,17.40
2019-05-11T09:49:12.858Z,17.80
2019-05-11T09:51:44.411Z,17.40
2019-05-11T09:54:15.389Z,17.10
2019-05-11T09:56:48.471Z,16.70
2019-05-11T09:59:19.034Z,16.20
2019-05-11T10:01:49.983Z,15.90
2019-05-11T10:04:20.952Z,15.70
2019-05-11T10:06:51.904Z,15.60
2019-05-11T10:09:23.732Z,15.40
2019-05-11T10:11:54.781Z,15.40
2019-05-11T10:14:25.733Z,15.40
2019-05-11T10:16:58.372Z,15.50
2019-05-11T10:19:29.771Z,15.60
2019-05-11T10:22:00.739Z,15.70
2019-05-11T10:24:31.689Z,15.80
2019-05-11T10:27:02.675Z,16.40
2019-05-11T10:29:34.063Z,16.90
2019-05-11T10:32:07.763Z,17.20
2019-05-11T10:34:38.625Z,17.20
2019-05-11T10:37:09.791Z,16.70
2019-05-11T10:39:40.767Z,15.90
2019-05-11T10:42:11.713Z,15.50
2019-05-11T10:44:42.841Z,15.30
2019-05-11T10:47:13.869Z,15.10
2019-05-11T10:49:44.842Z,14.90
2019-05-11T10:52:17.862Z,14.80
2019-05-11T10:54:48.489Z,14.80
2019-05-11T10:57:19.563Z,14.70
2019-05-11T10:59:50.514Z,14.70
2019-05-11T11:02:21.507Z,14.60
2019-05-11T11:04:52.707Z,14.30
2019-05-11T11:07:25.187Z,14.10
2019-05-11T11:09:58.033Z,14.00
2019-05-11T11:12:30.509Z,14.00
2019-05-11T11:15:01.451Z,13.90
2019-05-11T11:17:32.538Z,13.90
2019-05-11T11:20:04.772Z,13.80
2019-05-11T11:22:40.139Z,13.80
2019-05-11T11:25:08.885Z,13.70
2019-05-11T11:27:39.875Z,13.60
2019-05-11T11:30:11.884Z,13.30
2019-05-11T11:32:42.850Z,12.70
2019-05-11T11:35:13.912Z,12.20
2019-05-11T11:37:44.878Z,11.80
2019-05-11T11:40:17.740Z,11.60
2019-05-11T11:42:48.501Z,11.60
2019-05-11T11:45:20.148Z,11.80
2019-05-11T11:47:51.128Z,12.10
2019-05-11T11:50:22.180Z,12.40
2019-05-11T11:52:53.262Z,12.90
2019-05-11T11:55:24.338Z,13.30
2019-05-11T11:57:55.339Z,13.60
2019-05-11T12:00:28.145Z,14.10
2019-05-11T12:02:59.131Z,14.40
2019-05-11T12:05:30.135Z,14.30
2019-05-11T12:08:01.215Z,14.40
2019-05-11T12:10:32.152Z,14.30
2019-05-11T12:13:03.124Z,14.00
2019-05-11T12:15:35.082Z,13.70
2019-05-11T12:18:08.096Z,13.70
2019-05-11T12:20:39.101Z,13.60
2019-05-11T12:23:11.179Z,13.50
2019-05-11T12:25:42.165Z,13.30
2019-05-11T12:28:13.136Z,13.30
2019-05-11T12:30:44.114Z,13.30
2019-05-11T12:33:15.047Z,13.40
2019-05-11T12:35:48.034Z,13.50
2019-05-11T12:38:18.672Z,13.60
2019-05-11T12:40:49.657Z,13.40
2019-05-11T12:43:22.424Z,13.20
2019-05-11T12:45:53.431Z,13.10
2019-05-11T12:48:24.406Z,13.00
2019-05-11T12:50:55.376Z,12.80
2019-05-11T12:53:27.918Z,12.60
2019-05-11T12:55:59.133Z,12.20
2019-05-11T12:58:30.086Z,11.90
2019-05-11T13:01:01.124Z,11.80
2019-05-11T13:03:33.067Z,11.70
2019-05-11T13:06:04.039Z,11.70
2019-05-11T13:08:35.109Z,11.60
2019-05-11T13:11:07.861Z,11.60
2019-05-11T13:13:38.815Z,11.40
2019-05-11T13:16:09.787Z,11.40
2019-05-11T13:18:40.745Z,11.30
2019-05-11T13:21:11.731Z,11.20
2019-05-11T13:23:42.716Z,11.20
2019-05-11T13:26:13.711Z,11.10
2019-05-11T13:28:44.716Z,10.90
2019-05-11T13:31:15.718Z,10.80
2019-05-11T13:33:48.227Z,10.80
2019-05-11T13:36:22.134Z,10.80
2019-05-11T13:38:53.100Z,10.80
2019-05-11T13:41:24.441Z,10.90
2019-05-11T13:43:57.554Z,10.90
2019-05-11T13:46:29.297Z,10.80
2019-05-11T13:49:00.272Z,10.90
2019-05-11T13:51:31.217Z,10.80
2019-05-11T13:54:02.184Z,10.30
2019-05-11T13:56:33.123Z,9.90
2019-05-11T13:59:13.052Z,9.70
2019-05-11T14:01:43.976Z,9.60
2019-05-11T14:04:14.951Z,9.60
2019-05-11T14:06:47.988Z,9.80
2019-05-11T14:09:18.763Z,10.00
2019-05-11T14:11:50.750Z,10.20
2019-05-11T14:14:21.795Z,10.30
2019-05-11T14:16:52.776Z,10.30
2019-05-11T14:19:23.857Z,10.40
2019-05-11T14:21:55.028Z,10.50
2019-05-11T14:24:28.634Z,10.60
2019-05-11T14:26:58.755Z,10.50
2019-05-11T14:29:31.118Z,10.50
2019-05-11T14:32:02.224Z,10.50
2019-05-11T14:34:33.275Z,10.50
2019-05-11T14:37:04.228Z,10.60
2019-05-11T14:39:35.206Z,10.80
2019-05-11T14:42:07.727Z,11.10
2019-05-11T14:44:38.804Z,11.40
2019-05-11T14:47:09.756Z,11.50
2019-05-11T14:49:40.836Z,11.60
2019-05-11T14:52:11.781Z,11.60
2019-05-11T14:54:42.757Z,11.50
2019-05-11T14:57:13.725Z,11.30
2019-05-11T14:59:44.787Z,11.10
2019-05-11T15:02:33.590Z,10.90
2019-05-11T15:05:05.865Z,10.80
2019-05-11T15:07:38.537Z,10.70
2019-05-11T15:10:09.895Z,10.60
2019-05-11T15:12:40.878Z,10.60
2019-05-11T15:15:12.465Z,10.50
2019-05-11T15:17:43.437Z,10.50
2019-05-11T15:20:17.743Z,10.60
2019-05-11T15:22:49.120Z,10.60
2019-05-11T15:25:20.720Z,10.80
2019-05-11T15:27:52.901Z,10.90
2019-05-11T15:30:24.037Z,10.90
2019-05-11T15:32:55.043Z,10.90
2019-05-11T15:35:28.267Z,11.10
2019-05-11T15:37:58.667Z,11.40
2019-05-11T15:40:29.669Z,11.60
2019-05-11T15:43:00.679Z,11.80
2019-05-11T15:45:31.717Z,11.70
2019-05-11T15:48:02.708Z,11.80
2019-05-11T15:50:33.733Z,12.00
2019-05-11T15:53:04.974Z,11.80
2019-05-11T15:55:38.527Z,11.70
2019-05-11T15:58:08.696Z,11.70
2019-05-11T16:00:40.029Z,11.60
2019-05-11T16:03:11.191Z,11.70
2019-05-11T16:05:42.348Z,11.60
2019-05-11T16:08:13.404Z,11.50
2019-05-11T16:10:44.352Z,11.60
2019-05-11T16:13:15.345Z,11.60
2019-05-11T16:15:47.737Z,11.60
2019-05-11T16:18:19.127Z,11.50
2019-05-11T16:20:50.524Z,11.40
2019-05-11T16:23:21.533Z,11.30
2019-05-11T16:25:52.518Z,11.20
2019-05-11T16:28:23.464Z,11.10
2019-05-11T16:30:54.446Z,11.10
2019-05-11T16:33:25.402Z,11.00
2019-05-11T16:36:00.537Z,11.00
2019-05-11T16:38:29.204Z,10.90
2019-05-11T16:41:00.255Z,10.90
2019-05-11T16:43:31.211Z,10.90
2019-05-11T16:46:02.204Z,10.90
2019-05-11T16:48:33.176Z,10.80
2019-05-11T16:51:04.369Z,10.90
2019-05-11T16:53:36.867Z,10.80
2019-05-11T16:56:08.553Z,10.80
2019-05-11T16:58:41.164Z,10.90
2019-05-11T17:01:12.375Z,11.00
2019-05-11T17:03:43.518Z,11.10
2019-05-11T17:06:14.571Z,11.10
2019-05-11T17:08:45.718Z,11.10
2019-05-11T17:11:18.685Z,11.20
2019-05-11T17:13:49.468Z,11.20
2019-05-11T17:16:20.480Z,11.30
2019-05-11T17:18:51.644Z,11.20
2019-05-11T17:21:22.666Z,11.20
2019-05-11T17:23:53.747Z,11.20
2019-05-11T17:26:24.819Z,11.10
2019-05-11T17:28:57.672Z,11.10
2019-05-11T17:31:28.546Z,11.20
2019-05-11T17:33:59.584Z,11.20
2019-05-11T17:36:30.639Z,11.20
2019-05-11T17:39:01.765Z,11.30
2019-05-11T17:41:33.450Z,11.20
2019-05-11T17:44:07.823Z,11.20
2019-05-11T17:46:38.660Z,11.20
2019-05-11T17:49:09.913Z,11.00
2019-05-11T17:51:40.885Z,10.80
2019-05-11T17:54:11.928Z,10.70
2019-05-11T17:56:43.060Z,10.70
2019-05-11T17:59:14.097Z,10.70
2019-05-11T18:01:45.114Z,10.70
2019-05-11T18:04:18.301Z,10.70
2019-05-11T18:06:48.936Z,10.70
2019-05-11T18:09:19.997Z,10.70
2019-05-11T18:11:50.972Z,10.60
2019-05-11T18:14:22.279Z,10.60
2019-05-11T18:16:53.310Z,10.50
2019-05-11T18:19:24.363Z,10.50
2019-05-11T18:21:57.624Z,10.40
2019-05-11T18:24:28.595Z,10.30
2019-05-11T18:26:59.786Z,10.30
2019-05-11T18:29:30.794Z,10.20
2019-05-11T18:32:01.765Z,10.10
2019-05-11T18:34:32.990Z,10.10
2019-05-11T18:37:08.810Z,10.10
2019-05-11T18:39:39.681Z,10.10
2019-05-11T18:42:10.955Z,10.10
2019-05-11T18:44:42.037Z,10.20
2019-05-11T18:47:13.099Z,10.20
2019-05-11T18:49:44.144Z,10.20
2019-05-11T18:52:15.241Z,10.20
2019-05-11T18:54:47.844Z,10.20
2019-05-11T18:57:20.825Z,10.10
2019-05-11T18:59:51.990Z,10.20
2019-05-11T19:02:23.479Z,10.10
2019-05-11T19:04:58.030Z,10.10
2019-05-11T19:07:28.896Z,10.10
2019-05-11T19:10:00.022Z,10.10
2019-05-11T19:12:31.147Z,10.10
2019-05-11T19:15:02.121Z,10.10
2019-05-11T19:17:33.092Z,10.10
2019-05-11T19:20:08.621Z,10.10
2019-05-11T19:22:40.005Z,10.10
2019-05-11T19:25:11.210Z,10.00
2019-05-11T19:27:42.174Z,9.90
2019-05-11T19:30:13.339Z,9.90
2019-05-11T19:32:44.362Z,9.80
2019-05-11T19:35:17.546Z,9.80
2019-05-11T19:37:48.715Z,9.80
2019-05-11T19:40:20.211Z,9.80
2019-05-11T19:42:53.916Z,9.80
2019-05-11T19:45:25.548Z,9.80
2019-05-11T19:47:57.845Z,9.80
2019-05-11T19:50:29.038Z,9.80
2019-05-11T19:53:00.004Z,9.70
2019-05-11T19:55:30.994Z,9.70
2019-05-11T19:58:02.502Z,9.60
2019-05-11T20:00:33.434Z,9.60
2019-05-11T20:03:04.446Z,9.60
2019-05-11T20:05:37.858Z,9.50
2019-05-11T20:08:08.140Z,9.50
2019-05-11T20:10:39.096Z,9.40
2019-05-11T20:13:10.058Z,9.40
2019-05-11T20:15:41.010Z,9.40
2019-05-11T20:18:12.056Z,9.30
2019-05-11T20:20:43.124Z,9.30
2019-05-11T20:23:14.083Z,9.30
2019-05-11T20:25:47.642Z,9.30
2019-05-11T20:28:18.369Z,9.30
2019-05-11T20:30:49.650Z,9.30
2019-05-11T20:33:20.653Z,9.30
2019-05-11T20:35:51.584Z,9.30
2019-05-11T20:38:22.550Z,9.30
2019-05-11T20:40:53.580Z,9.30
2019-05-11T20:43:27.703Z,9.30
2019-05-11T20:45:58.418Z,9.30
2019-05-11T20:48:29.399Z,9.30
2019-05-11T20:51:00.432Z,9.30
2019-05-11T20:53:31.389Z,9.30
2019-05-11T20:56:02.324Z,9.30
2019-05-11T20:58:34.854Z,9.30
2019-05-11T21:01:05.823Z,9.30
2019-05-11T21:03:38.112Z,9.20
2019-05-11T21:06:09.196Z,9.20
2019-05-11T21:08:40.176Z,9.10
2019-05-11T21:11:11.175Z,9.10
2019-05-11T21:13:42.156Z,9.00
2019-05-11T21:16:13.079Z,8.90
2019-05-11T21:18:44.040Z,8.90
2019-05-11T21:21:14.977Z,8.90
2019-05-11T21:23:48.657Z,8.90
2019-05-11T21:26:18.973Z,8.90
2019-05-11T21:28:50.005Z,8.80
2019-05-11T21:31:21.040Z,8.80
2019-05-11T21:33:52.009Z,8.80
2019-05-11T21:36:28.226Z,8.70
2019-05-11T21:38:58.928Z,8.70
2019-05-11T21:41:31.055Z,8.70
2019-05-11T21:44:02.207Z,8.70
2019-05-11T21:46:34.481Z,8.70
2019-05-11T21:49:07.678Z,8.70
2019-05-11T21:51:38.234Z,8.60
2019-05-11T21:54:09.209Z,8.70
2019-05-11T21:56:40.903Z,8.60
2019-05-11T21:59:13.162Z,8.60
2019-05-11T22:01:44.257Z,8.50
2019-05-11T22:04:15.296Z,8.50
2019-05-11T22:06:48.388Z,8.40
2019-05-11T22:09:19.123Z,8.40
2019-05-11T22:11:50.053Z,8.40
2019-05-11T22:14:21.015Z,8.40
2019-05-11T22:16:51.964Z,8.40
2019-05-11T22:19:22.934Z,8.40
2019-05-11T22:21:53.876Z,8.40
2019-05-11T22:24:24.847Z,8.40
2019-05-11T22:26:57.476Z,8.40
2019-05-11T22:29:28.695Z,8.30
2019-05-11T22:31:59.745Z,8.40
2019-05-11T22:34:30.693Z,8.40
2019-05-11T22:37:01.829Z,8.40
2019-05-11T22:39:32.811Z,8.40
2019-05-11T22:42:03.806Z,8.30
2019-05-11T22:44:35.906Z,8.30
2019-05-11T22:47:08.937Z,8.20
2019-05-11T22:49:40.033Z,8.20
2019-05-11T22:52:11.019Z,8.10
2019-05-11T22:54:42.003Z,8.00
2019-05-11T22:57:12.972Z,7.80
2019-05-11T22:59:43.958Z,7.70
2019-05-11T23:02:15.021Z,7.70
2019-05-11T23:04:48.004Z,7.60
2019-05-11T23:07:18.825Z,7.50
2019-05-11T23:09:49.780Z,7.50
2019-05-11T23:12:20.800Z,7.50
2019-05-11T23:14:53.311Z,7.40
2019-05-11T23:17:24.298Z,7.30
2019-05-11T23:19:55.246Z,7.30
2019-05-11T23:22:26.302Z,7.30
2019-05-11T23:24:58.781Z,7.30
2019-05-11T23:27:29.986Z,7.20
2019-05-11T23:30:00.965Z,7.20
2019-05-11T23:32:31.949Z,7.20
2019-05-11T23:35:02.875Z,7.00
2019-05-11T23:37:34.001Z,7.00
2019-05-11T23:40:09.143Z,7.00
2019-05-11T23:42:40.363Z,6.90
2019-05-11T23:45:11.602Z,7.00
2019-05-11T23:47:42.572Z,6.90
2019-05-11T23:50:15.706Z,7.00
2019-05-11T23:52:48.804Z,7.00
2019-05-11T23:55:19.620Z,6.90
2019-05-11T23:57:51.044Z,6.90
